Data Viewer
| City | State | Eastern Time | Source | Temp | DewPt | RH | BP | 5 Min Precip | Wind Speed | Wind Dir | 5 Min Wind Max | 5 Min Wind Max Dir |
|---|---|---|---|---|---|---|---|---|---|---|---|---|
| Old Bridge | NJ | 2026-05-08 02:13 | NCAWOS | 48 | 94 | 29.83 | 0 | N | ||||
| Old Bridge | NJ | 2026-05-08 16:03 | NCAWOS | 34 | 30 | 29.86 | 8 | NW | ||||
| Old Bridge | NJ | 2026-05-08 17:09 | NCAWOS | 36 | 32 | 29.86 | 8 | NW | ||||
| Old Bridge | NJ | 2026-05-08 17:04 | NCAWOS | 37 | 35 | 29.86 | 7 | NNW | ||||
| Old Bridge | NJ | 2026-05-08 16:24 | NCAWOS | 34 | 30 | 29.87 | 7 | WNW | ||||
| Old Bridge | NJ | 2026-05-08 16:19 | NCAWOS | 34 | 32 | 29.87 | 9 | N | ||||
| Old Bridge | NJ | 2026-05-08 16:14 | NCAWOS | 34 | 32 | 29.87 | 9 | NW | ||||
| Old Bridge | NJ | 2026-05-08 16:09 | NCAWOS | 34 | 32 | 29.86 | 9 | NNW | ||||
| Old Bridge | NJ | 2026-05-08 15:29 | NCAWOS | 32 | 30 | 29.86 | 7 | WNW | ||||
| Old Bridge | NJ | 2026-05-08 17:19 | NCAWOS | 36 | 32 | 29.86 | 6 | NW | ||||
| Old Bridge | NJ | 2026-05-08 15:19 | NCAWOS | 34 | 32 | 29.86 | 7 | WNW | ||||
| Old Bridge | NJ | 2026-05-08 15:14 | NCAWOS | 34 | 30 | 29.86 | 6 | NW | ||||
| Old Bridge | NJ | 2026-05-08 15:09 | NCAWOS | 34 | 30 | 29.86 | 7 | WNW | ||||
| Old Bridge | NJ | 2026-05-08 14:25 | NCAWOS | 32 | 30 | 29.88 | 8 | W | ||||
| Old Bridge | NJ | 2026-05-08 14:14 | NCAWOS | 32 | 30 | 29.88 | 9 | W | ||||
| Old Bridge | NJ | 2026-05-08 14:04 | NCAWOS | 32 | 30 | 29.88 | 14 | WNW | ||||
| Old Bridge | NJ | 2026-05-08 14:00 | NCAWOS | 34 | 32 | 29.89 | 14 | WNW | ||||
| Old Bridge | NJ | 2026-05-08 17:14 | NCAWOS | 36 | 32 | 29.86 | 6 | WNW | ||||
| Old Bridge | NJ | 2026-05-08 18:04 | NCAWOS | 36 | 32 | 29.86 | 6 | N | ||||
| Old Bridge | NJ | 2026-05-08 13:09 | NCAWOS | 34 | 32 | 29.89 | 9 | NW | ||||
| Old Bridge | NJ | 2026-05-08 21:03 | NCAWOS | 41 | 51 | 29.89 | 0 | N | ||||
| Old Bridge | NJ | 2026-05-09 01:09 | NCAWOS | 43 | 62 | 29.92 | 0 | N | ||||
| Old Bridge | NJ | 2026-05-08 23:19 | NCAWOS | 41 | 55 | 29.91 | 0 | N | ||||
| Old Bridge | NJ | 2026-05-08 23:14 | NCAWOS | 41 | 55 | 29.91 | 0 | N | ||||
| Old Bridge | NJ | 2026-05-08 23:09 | NCAWOS | 41 | 55 | 29.91 | 0 | N | ||||
| Old Bridge | NJ | 2026-05-08 23:03 | NCAWOS | 41 | 55 | 29.91 | 0 | N | ||||
| Old Bridge | NJ | 2026-05-08 21:24 | NCAWOS | 43 | 59 | 29.91 | 0 | N | ||||
| Old Bridge | NJ | 2026-05-08 21:18 | NCAWOS | 43 | 59 | 29.90 | 0 | N | ||||
| Old Bridge | NJ | 2026-05-08 20:25 | NCAWOS | 41 | 48 | 29.87 | 0 | N | ||||
| Old Bridge | NJ | 2026-05-08 18:09 | NCAWOS | 37 | 35 | 29.86 | 5 | NNW | ||||
| Old Bridge | NJ | 2026-05-08 20:24 | NCAWOS | 41 | 48 | 29.87 | 0 | N | ||||
| Old Bridge | NJ | 2026-05-08 20:09 | NCAWOS | 41 | 48 | 29.87 | 0 | N | ||||
| Old Bridge | NJ | 2026-05-08 20:05 | NCAWOS | 39 | 45 | 29.87 | 0 | N | ||||
| Old Bridge | NJ | 2026-05-08 19:24 | NCAWOS | 37 | 39 | 29.86 | 0 | N | ||||
| Old Bridge | NJ | 2026-05-08 19:09 | NCAWOS | 37 | 37 | 29.86 | 0 | N | ||||
| Old Bridge | NJ | 2026-05-08 19:04 | NCAWOS | 37 | 37 | 29.86 | 0 | N | ||||
| Old Bridge | NJ | 2026-05-08 18:14 | NCAWOS | 37 | 35 | 29.86 | 6 | N | ||||
| Old Bridge | NJ | 2026-05-08 13:24 | NCAWOS | 34 | 32 | 29.89 | 13 | WNW | ||||
| Old Bridge | NJ | 2026-05-08 13:04 | NCAWOS | 32 | 32 | 29.89 | 10 | WNW | ||||
| Old Bridge | NJ | 2026-05-08 02:19 | NCAWOS | 48 | 94 | 29.83 | 3 | N | ||||
| Old Bridge | NJ | 2026-05-08 04:20 | NCAWOS | 37 | 62 | 29.88 | 7 | N | ||||
| Old Bridge | NJ | 2026-05-08 07:17 | NCAWOS | 41 | 71 | 29.93 | 5 | WNW | ||||
| Old Bridge | NJ | 2026-05-08 07:14 | NCAWOS | 41 | 76 | 29.94 | 3 | NW | ||||
| Old Bridge | NJ | 2026-05-08 07:09 | NCAWOS | 41 | 76 | 29.94 | 3 | WNW | ||||
| Old Bridge | NJ | 2026-05-08 07:04 | NCAWOS | 41 | 76 | 29.94 | 3 | W | ||||
| Old Bridge | NJ | 2026-05-08 04:29 | NCAWOS | 37 | 62 | 29.88 | 6 | N | ||||
| Old Bridge | NJ | 2026-05-08 04:24 | NCAWOS | 37 | 62 | 29.88 | 7 | NNE | ||||
| Old Bridge | NJ | 2026-05-08 04:14 | NCAWOS | 37 | 62 | 29.88 | 5 | N | ||||
| Old Bridge | NJ | 2026-05-08 08:04 | NCAWOS | 41 | 62 | 29.94 | 5 | NW | ||||
| Old Bridge | NJ | 2026-05-08 04:09 | NCAWOS | 37 | 62 | 29.88 | 5 | N | ||||
| Old Bridge | NJ | 2026-05-08 04:04 | NCAWOS | 37 | 62 | 29.87 | 6 | N | ||||
| Old Bridge | NJ | 2026-05-08 03:25 | NCAWOS | 39 | 66 | 29.84 | 5 | NNE | ||||
| Old Bridge | NJ | 2026-05-08 03:19 | NCAWOS | 39 | 66 | 29.84 | 5 | NNE | ||||
| Old Bridge | NJ | 2026-05-08 03:14 | NCAWOS | 39 | 66 | 29.84 | 3 | NNE | ||||
| Old Bridge | NJ | 2026-05-08 03:09 | NCAWOS | 39 | 66 | 29.83 | 5 | W | ||||
| Old Bridge | NJ | 2026-05-08 03:05 | NCAWOS | 39 | 66 | 29.83 | 5 | ENE | ||||
| Old Bridge | NJ | 2026-05-08 07:24 | NCAWOS | 39 | 66 | 29.93 | 3 | NW | ||||
| Old Bridge | NJ | 2026-05-08 08:09 | NCAWOS | 41 | 62 | 29.93 | 3 | NNE | ||||
| Old Bridge | NJ | 2026-05-08 12:24 | NCAWOS | 30 | 29 | 29.91 | 11 | NW | ||||
| Old Bridge | NJ | 2026-05-08 11:04 | NCAWOS | 30 | 31 | 29.92 | 6 | WNW | ||||
| Old Bridge | NJ | 2026-05-08 12:19 | NCAWOS | 30 | 31 | 29.91 | 14 | WNW | ||||
| Old Bridge | NJ | 2026-05-08 12:14 | NCAWOS | 30 | 31 | 29.92 | 11 | WNW | ||||
| Old Bridge | NJ | 2026-05-08 12:09 | NCAWOS | 30 | 31 | 29.92 | 11 | WNW | ||||
| Old Bridge | NJ | 2026-05-08 12:04 | NCAWOS | 30 | 31 | 29.92 | 7 | NW | ||||
| Old Bridge | NJ | 2026-05-08 11:19 | NCAWOS | 28 | 29 | 29.92 | 9 | W | ||||
| Old Bridge | NJ | 2026-05-08 11:14 | NCAWOS | 30 | 31 | 29.93 | 13 | W | ||||
| Old Bridge | NJ | 2026-05-08 11:09 | NCAWOS | 30 | 31 | 29.92 | 9 | WSW | ||||
| Old Bridge | NJ | 2026-05-08 10:24 | NCAWOS | 30 | 33 | 29.93 | 5 | WNW | ||||
| Old Bridge | NJ | 2026-05-08 08:14 | NCAWOS | 39 | 58 | 29.93 | 5 | N | ||||
| Old Bridge | NJ | 2026-05-08 10:05 | NCAWOS | 34 | 36 | 29.93 | 3 | NNW | ||||
| Old Bridge | NJ | 2026-05-08 09:24 | NCAWOS | 35 | 44 | 29.94 | 5 | NW | ||||
| Old Bridge | NJ | 2026-05-08 09:19 | NCAWOS | 35 | 44 | 29.94 | 7 | NW | ||||
| Old Bridge | NJ | 2026-05-08 09:14 | NCAWOS | 35 | 44 | 29.94 | 6 | NNW | ||||
| Old Bridge | NJ | 2026-05-08 09:09 | NCAWOS | 35 | 47 | 29.94 | 8 | WNW | ||||
| Old Bridge | NJ | 2026-05-08 09:04 | NCAWOS | 35 | 44 | 29.94 | 7 | NNW | ||||
| Old Bridge | NJ | 2026-05-08 08:19 | NCAWOS | 39 | 54 | 29.93 | 6 | WNW | ||||
| Old Bridge | NJ | 2026-05-09 01:14 | NCAWOS | 43 | 62 | 29.92 | 0 | N |
data collection created in 0.01508903503418 (queried in 0.005295) rendered in: 0.00011301040649414

